createdAt,value
2018-02-18T00:00:11.956Z,133.53
2018-02-18T00:02:39.894Z,160.10
2018-02-18T00:05:07.852Z,150.63
2018-02-18T00:07:35.741Z,145.93
2018-02-18T00:10:03.732Z,143.07
2018-02-18T00:12:31.789Z,156.87
2018-02-18T00:15:10.484Z,165.97
2018-02-18T00:17:38.374Z,169.97
2018-02-18T00:20:06.343Z,182.43
2018-02-18T00:22:34.228Z,146.53
2018-02-18T00:25:02.283Z,168.27
2018-02-18T00:27:30.406Z,130.83
2018-02-18T00:29:58.167Z,169.40
2018-02-18T00:32:25.984Z,162.13
2018-02-18T00:34:53.861Z,160.97
2018-02-18T00:37:21.901Z,131.70
2018-02-18T00:39:49.864Z,135.37
2018-02-18T00:42:17.761Z,162.07
2018-02-18T00:44:45.937Z,129.53
2018-02-18T00:47:14.603Z,108.13
2018-02-18T00:49:42.479Z,142.30
2018-02-18T00:52:10.361Z,93.07
2018-02-18T00:54:38.419Z,111.50
2018-02-18T00:57:06.392Z,135.10
2018-02-18T00:59:34.969Z,111.90
2018-02-18T01:02:03.041Z,99.17
2018-02-18T01:04:31.425Z,128.53
2018-02-18T01:06:59.369Z,130.00
2018-02-18T01:09:27.457Z,101.70
2018-02-18T01:11:55.338Z,124.13
2018-02-18T01:14:23.372Z,107.47
2018-02-18T01:16:51.150Z,121.30
2018-02-18T01:19:18.926Z,141.57
2018-02-18T01:21:46.767Z,145.93
2018-02-18T01:24:15.372Z,126.57
2018-02-18T01:26:43.862Z,115.90
2018-02-18T01:29:12.129Z,142.67
2018-02-18T01:31:41.018Z,98.93
2018-02-18T01:34:08.867Z,107.70
2018-02-18T01:36:36.647Z,112.97
2018-02-18T01:39:04.803Z,100.00
2018-02-18T01:41:32.589Z,112.47
2018-02-18T01:44:00.758Z,113.43
2018-02-18T01:46:29.021Z,135.57
2018-02-18T01:48:56.898Z,121.57
2018-02-18T01:51:25.053Z,111.23
2018-02-18T01:53:52.950Z,88.00
2018-02-18T01:56:20.991Z,102.37
2018-02-18T01:58:48.737Z,107.17
2018-02-18T02:01:16.651Z,114.57
2018-02-18T02:03:44.507Z,94.17
2018-02-18T02:06:12.386Z,155.43
2018-02-18T02:08:40.653Z,127.60
2018-02-18T02:11:08.401Z,117.37
2018-02-18T02:13:36.383Z,119.17
2018-02-18T02:16:04.259Z,104.03
2018-02-18T02:18:33.349Z,110.93
2018-02-18T02:21:01.476Z,103.13
2018-02-18T02:23:29.442Z,108.33
2018-02-18T02:25:57.352Z,98.97
2018-02-18T02:28:25.321Z,119.53
2018-02-18T02:30:53.479Z,100.30
2018-02-18T02:33:21.364Z,133.83
2018-02-18T02:35:49.430Z,117.07
2018-02-18T02:38:17.284Z,114.30
2018-02-18T02:40:45.761Z,103.37
2018-02-18T02:43:13.748Z,116.27
2018-02-18T02:45:41.700Z,94.63
2018-02-18T02:48:09.673Z,103.83
2018-02-18T02:50:37.552Z,93.93
2018-02-18T02:53:05.508Z,108.87
2018-02-18T02:55:33.282Z,88.63
2018-02-18T02:58:01.134Z,130.23
2018-02-18T03:00:29.000Z,92.20
2018-02-18T03:02:57.269Z,141.03
2018-02-18T03:05:25.166Z,111.47
2018-02-18T03:07:53.116Z,132.60
2018-02-18T03:10:20.897Z,106.43
2018-02-18T03:12:48.759Z,113.00
2018-02-18T03:15:16.637Z,123.43
2018-02-18T03:17:45.054Z,115.47
2018-02-18T03:20:13.875Z,101.43
2018-02-18T03:22:41.743Z,132.57
2018-02-18T03:25:09.627Z,100.73
2018-02-18T03:27:38.852Z,102.30
2018-02-18T03:30:07.512Z,114.50
2018-02-18T03:32:35.358Z,119.23
2018-02-18T03:35:03.138Z,105.27
2018-02-18T03:37:31.005Z,113.17
2018-02-18T03:39:59.054Z,99.93
2018-02-18T03:42:26.842Z,97.43
2018-02-18T03:44:54.601Z,108.37
2018-02-18T03:47:22.475Z,96.30
2018-02-18T03:49:50.247Z,88.30
2018-02-18T03:52:18.005Z,120.70
2018-02-18T03:54:45.767Z,127.17
2018-02-18T03:57:14.359Z,115.77
2018-02-18T03:59:43.322Z,114.33
2018-02-18T04:02:11.499Z,118.77
2018-02-18T04:04:39.461Z,105.50
2018-02-18T04:07:07.200Z,106.23
2018-02-18T04:09:35.010Z,102.33
2018-02-18T04:12:02.880Z,101.83
2018-02-18T04:14:30.746Z,122.83
2018-02-18T04:16:58.906Z,148.03
2018-02-18T04:19:26.697Z,110.93
2018-02-18T04:21:54.554Z,99.57
2018-02-18T04:24:23.859Z,135.60
2018-02-18T04:26:52.444Z,119.33
2018-02-18T04:29:20.342Z,86.10
2018-02-18T04:31:49.479Z,102.13
2018-02-18T04:34:17.262Z,125.90
2018-02-18T04:36:45.130Z,91.70
2018-02-18T04:39:12.975Z,114.47
2018-02-18T04:41:40.759Z,140.03
2018-02-18T04:44:08.517Z,108.23
2018-02-18T04:46:36.286Z,132.07
2018-02-18T04:49:04.234Z,116.07
2018-02-18T04:51:32.126Z,108.50
2018-02-18T04:54:00.148Z,99.70
2018-02-18T04:56:28.038Z,114.20
2018-02-18T04:58:56.028Z,96.50
2018-02-18T05:01:23.975Z,103.00
2018-02-18T05:03:52.017Z,109.57
2018-02-18T05:06:19.827Z,116.17
2018-02-18T05:08:47.901Z,123.10
2018-02-18T05:11:15.877Z,106.80
2018-02-18T05:13:43.743Z,101.17
2018-02-18T05:16:12.320Z,106.53
2018-02-18T05:18:40.983Z,79.70
2018-02-18T05:21:08.976Z,105.00
2018-02-18T05:23:36.953Z,112.03
2018-02-18T05:26:04.991Z,124.03
2018-02-18T05:28:34.720Z,90.47
2018-02-18T05:31:02.980Z,100.17
2018-02-18T05:33:30.886Z,127.17
2018-02-18T05:35:59.452Z,100.17
2018-02-18T05:38:27.315Z,84.07
2018-02-18T05:40:55.286Z,126.30
2018-02-18T05:43:23.129Z,76.53
2018-02-18T05:45:50.913Z,95.00
2018-02-18T05:48:18.864Z,127.13
2018-02-18T05:50:46.746Z,96.60
2018-02-18T05:53:14.494Z,95.17
2018-02-18T05:55:42.274Z,98.27
2018-02-18T05:58:10.043Z,94.00
2018-02-18T06:00:38.043Z,106.20
2018-02-18T06:03:06.696Z,79.93
2018-02-18T06:05:34.558Z,78.47
2018-02-18T06:08:02.549Z,84.33
2018-02-18T06:10:31.231Z,96.00
2018-02-18T06:13:00.301Z,100.67
2018-02-18T06:15:29.479Z,96.53
2018-02-18T06:17:57.455Z,95.27
2018-02-18T06:20:25.340Z,74.93
2018-02-18T06:22:53.086Z,105.20
2018-02-18T06:25:21.004Z,115.47
2018-02-18T06:27:49.560Z,98.00
2018-02-18T06:30:17.425Z,104.07
2018-02-18T06:32:45.292Z,112.10
2018-02-18T06:35:13.158Z,132.10
2018-02-18T06:37:42.029Z,91.53
2018-02-18T06:40:09.890Z,84.67
2018-02-18T06:42:37.677Z,103.60
2018-02-18T06:45:05.650Z,85.60
2018-02-18T06:47:33.518Z,94.27
2018-02-18T06:50:01.369Z,85.13
2018-02-18T06:52:29.122Z,89.73
2018-02-18T06:54:57.801Z,94.67
2018-02-18T06:57:25.633Z,98.67
2018-02-18T06:59:53.539Z,90.73
2018-02-18T07:02:21.425Z,98.13
2018-02-18T07:04:49.296Z,84.77
2018-02-18T07:07:17.178Z,114.40
2018-02-18T07:09:45.684Z,112.33
2018-02-18T07:12:13.504Z,91.63
2018-02-18T07:14:41.368Z,95.97
2018-02-18T07:17:09.318Z,83.07
2018-02-18T07:19:37.114Z,82.50
2018-02-18T07:22:04.965Z,85.03
2018-02-18T07:24:32.937Z,83.73
2018-02-18T07:27:00.816Z,90.93
2018-02-18T07:29:28.886Z,139.67
2018-02-18T07:31:56.851Z,100.40
2018-02-18T07:34:24.719Z,77.17
2018-02-18T07:36:52.451Z,97.93
2018-02-18T07:39:20.261Z,108.33
2018-02-18T07:41:48.796Z,96.73
2018-02-18T07:44:16.585Z,102.00
2018-02-18T07:46:44.439Z,96.07
2018-02-18T07:49:12.326Z,89.03
2018-02-18T07:51:41.622Z,87.03
2018-02-18T07:54:09.482Z,81.63
2018-02-18T07:56:37.348Z,70.10
2018-02-18T07:59:05.219Z,70.33
2018-02-18T08:01:33.682Z,72.23
2018-02-18T08:04:01.671Z,68.90
2018-02-18T08:06:29.569Z,76.87
2018-02-18T08:08:58.222Z,74.80
2018-02-18T08:11:26.904Z,76.13
2018-02-18T08:13:54.753Z,84.37
2018-02-18T08:16:22.842Z,62.80
2018-02-18T08:18:50.601Z,56.80
2018-02-18T08:21:18.557Z,75.60
2018-02-18T08:23:46.916Z,65.27
2018-02-18T08:26:14.697Z,66.37
2018-02-18T08:28:43.304Z,62.30
2018-02-18T08:31:11.883Z,57.40
2018-02-18T08:33:39.731Z,54.67
2018-02-18T08:36:07.507Z,60.43
2018-02-18T08:38:35.872Z,57.30
2018-02-18T08:41:03.655Z,61.97
2018-02-18T08:43:31.631Z,56.87
2018-02-18T08:45:59.536Z,74.33
2018-02-18T08:48:27.380Z,67.93
2018-02-18T08:50:55.973Z,67.07
2018-02-18T08:53:24.729Z,59.20
2018-02-18T08:55:52.694Z,61.80
2018-02-18T08:58:20.545Z,79.83
2018-02-18T09:00:48.336Z,66.30
2018-02-18T09:03:17.007Z,72.70
2018-02-18T09:05:44.784Z,64.53
2018-02-18T09:08:12.643Z,62.80
2018-02-18T09:10:40.497Z,68.80
2018-02-18T09:13:08.288Z,83.27
2018-02-18T09:15:36.024Z,68.90
2018-02-18T09:18:03.887Z,74.97
2018-02-18T09:20:31.801Z,71.90
2018-02-18T09:23:00.459Z,72.83
2018-02-18T09:25:28.220Z,69.53
2018-02-18T09:27:57.768Z,71.93
2018-02-18T09:30:25.594Z,65.00
2018-02-18T09:32:53.371Z,68.87
2018-02-18T09:35:21.241Z,70.63
2018-02-18T09:37:48.971Z,75.77
2018-02-18T09:40:16.856Z,75.43
2018-02-18T09:42:44.610Z,77.03
2018-02-18T09:45:12.590Z,81.90
2018-02-18T09:47:40.539Z,76.37
2018-02-18T09:50:08.294Z,62.83
2018-02-18T09:52:36.344Z,76.63
2018-02-18T09:55:04.148Z,83.20
2018-02-18T09:57:32.013Z,81.87
2018-02-18T09:59:59.799Z,76.87
2018-02-18T10:02:27.651Z,70.40
2018-02-18T10:04:55.522Z,70.03
2018-02-18T10:07:23.367Z,71.23
2018-02-18T10:09:51.123Z,76.10
2018-02-18T10:12:18.915Z,65.57
2018-02-18T10:14:46.778Z,74.47
2018-02-18T10:17:14.621Z,72.63
2018-02-18T10:19:42.508Z,69.93
2018-02-18T10:22:10.381Z,75.40
2018-02-18T10:24:39.694Z,74.87
2018-02-18T10:27:08.255Z,68.53
2018-02-18T10:29:36.105Z,72.37
2018-02-18T10:32:03.998Z,70.97
2018-02-18T10:34:31.865Z,77.17
2018-02-18T10:36:59.667Z,70.63
2018-02-18T10:39:27.587Z,66.50
2018-02-18T10:41:55.449Z,66.97
2018-02-18T10:44:24.123Z,73.43
2018-02-18T10:46:51.991Z,73.47
2018-02-18T10:49:19.987Z,71.23
2018-02-18T10:51:47.854Z,77.00
2018-02-18T10:54:15.731Z,66.20
2018-02-18T10:56:44.243Z,69.93
2018-02-18T10:59:12.140Z,69.57
2018-02-18T11:01:40.009Z,65.07
2018-02-18T11:04:07.976Z,69.60
2018-02-18T11:06:35.947Z,61.17
2018-02-18T11:09:04.048Z,65.53
2018-02-18T11:11:32.704Z,68.27
2018-02-18T11:14:00.698Z,71.83
2018-02-18T11:16:28.571Z,73.20
2018-02-18T11:18:57.119Z,61.90
2018-02-18T11:21:25.091Z,61.47
2018-02-18T11:23:52.974Z,67.97
2018-02-18T11:26:20.840Z,73.37
2018-02-18T11:28:48.710Z,67.37
2018-02-18T11:31:16.562Z,61.20
2018-02-18T11:33:44.440Z,63.13
2018-02-18T11:36:12.412Z,68.47
2018-02-18T11:38:41.902Z,71.23
2018-02-18T11:41:09.886Z,66.33
2018-02-18T11:43:37.648Z,64.00
2018-02-18T11:46:05.506Z,77.17
2018-02-18T11:48:33.393Z,66.80
2018-02-18T11:51:01.366Z,84.63
2018-02-18T11:53:29.222Z,77.03
2018-02-18T11:55:57.091Z,78.60
2018-02-18T11:58:25.073Z,82.47
2018-02-18T12:00:53.821Z,77.77
2018-02-18T12:03:21.858Z,80.57
2018-02-18T12:05:49.685Z,72.70
2018-02-18T12:08:17.538Z,78.90
2018-02-18T12:10:46.121Z,71.53
2018-02-18T12:13:13.892Z,73.87
2018-02-18T12:15:41.753Z,70.13
2018-02-18T12:18:09.808Z,77.63
2018-02-18T12:20:37.828Z,76.37
2018-02-18T12:23:06.565Z,92.33
2018-02-18T12:25:34.466Z,76.30
2018-02-18T12:28:03.040Z,75.03
2018-02-18T12:30:30.901Z,79.93
2018-02-18T12:32:58.652Z,72.07
2018-02-18T12:35:26.424Z,79.50
2018-02-18T12:37:54.280Z,71.70
2018-02-18T12:40:22.153Z,74.20
2018-02-18T12:42:50.034Z,73.17
2018-02-18T12:45:17.808Z,77.17
2018-02-18T12:47:46.454Z,68.73
2018-02-18T12:50:14.524Z,74.10
2018-02-18T12:52:42.494Z,69.13
2018-02-18T12:55:10.270Z,69.77
2018-02-18T12:57:38.201Z,68.97
2018-02-18T13:00:05.982Z,64.23
2018-02-18T13:02:33.862Z,74.00
2018-02-18T13:05:02.067Z,68.77
2018-02-18T13:07:29.911Z,63.83
2018-02-18T13:09:57.788Z,56.97
2018-02-18T13:12:25.584Z,70.93
2018-02-18T13:14:54.128Z,63.30
2018-02-18T13:17:22.016Z,66.30
2018-02-18T13:19:49.861Z,63.60
2018-02-18T13:22:17.817Z,59.03
2018-02-18T13:24:45.631Z,60.97
2018-02-18T13:27:14.415Z,54.60
2018-02-18T13:29:43.094Z,64.47
2018-02-18T13:32:11.854Z,61.53
2018-02-18T13:34:39.627Z,76.93
2018-02-18T13:37:07.396Z,79.13
2018-02-18T13:39:35.347Z,70.90
2018-02-18T13:42:03.123Z,69.00
2018-02-18T13:44:31.077Z,61.13
2018-02-18T13:46:58.936Z,73.63
2018-02-18T13:49:26.805Z,63.60
2018-02-18T13:51:54.668Z,65.23
2018-02-18T13:54:22.536Z,73.57
2018-02-18T13:56:50.344Z,65.70
2018-02-18T13:59:19.505Z,67.27
2018-02-18T14:01:47.567Z,68.67
2018-02-18T14:04:15.543Z,59.77
2018-02-18T14:06:43.537Z,68.07
2018-02-18T14:09:12.294Z,60.03
2018-02-18T14:11:40.276Z,57.53
2018-02-18T14:14:08.154Z,58.17
2018-02-18T14:16:36.016Z,57.00
2018-02-18T14:19:04.600Z,69.30
2018-02-18T14:21:32.486Z,65.57
2018-02-18T14:24:01.357Z,64.40
2018-02-18T14:26:29.236Z,53.60
2018-02-18T14:28:57.170Z,59.03
2018-02-18T14:31:24.956Z,64.23
2018-02-18T14:33:52.902Z,58.80
2018-02-18T14:36:20.793Z,59.90
2018-02-18T14:38:48.784Z,56.07
2018-02-18T14:41:40.360Z,66.17
2018-02-18T14:44:20.039Z,61.63
2018-02-18T14:46:59.846Z,56.57
2018-02-18T14:49:39.730Z,73.37
2018-02-18T14:52:20.183Z,71.40
2018-02-18T14:55:11.961Z,77.93
2018-02-18T14:57:39.989Z,65.50
2018-02-18T15:00:07.974Z,70.60
2018-02-18T15:02:36.639Z,68.57
2018-02-18T15:05:04.499Z,72.37
2018-02-18T15:07:33.321Z,71.60
2018-02-18T15:10:02.290Z,93.93
2018-02-18T15:12:32.030Z,85.30
2018-02-18T15:15:00.244Z,65.93
2018-02-18T15:17:28.302Z,72.43
2018-02-18T15:19:56.283Z,67.37
2018-02-18T15:22:24.366Z,60.60
2018-02-18T15:24:52.458Z,70.73
2018-02-18T15:27:20.441Z,65.40
2018-02-18T15:29:49.187Z,65.03
2018-02-18T15:32:17.393Z,70.30
2018-02-18T15:34:45.273Z,81.63
2018-02-18T15:37:14.125Z,74.47
2018-02-18T15:39:42.287Z,70.17
2018-02-18T15:42:10.597Z,73.43
2018-02-18T15:44:38.540Z,76.93
2018-02-18T15:47:06.631Z,81.67
2018-02-18T15:49:36.297Z,74.17
2018-02-18T15:52:04.718Z,71.33
2018-02-18T15:54:33.010Z,82.10
2018-02-18T15:57:02.062Z,86.27
2018-02-18T15:59:30.147Z,86.67
2018-02-18T16:01:58.288Z,73.80
2018-02-18T16:04:26.796Z,69.20
2018-02-18T16:06:54.888Z,86.93
2018-02-18T16:09:22.834Z,72.00
2018-02-18T16:11:50.774Z,75.93
2018-02-18T16:14:19.716Z,89.10
2018-02-18T16:16:47.871Z,73.33
2018-02-18T16:19:15.748Z,106.67
2018-02-18T16:21:43.734Z,98.10
2018-02-18T16:24:12.484Z,86.57
2018-02-18T16:26:40.348Z,122.67
2018-02-18T16:29:08.307Z,151.93
2018-02-18T16:31:36.293Z,156.23
2018-02-18T16:34:04.285Z,133.33
2018-02-18T16:36:32.432Z,153.07
2018-02-18T16:39:00.260Z,103.20
2018-02-18T16:41:28.306Z,67.83
2018-02-18T16:43:56.843Z,84.97
2018-02-18T16:46:24.815Z,72.50
2018-02-18T16:48:52.702Z,69.07
2018-02-18T16:51:20.673Z,82.87
2018-02-18T16:53:49.540Z,86.43
2018-02-18T16:56:17.383Z,79.53
2018-02-18T16:58:45.582Z,67.67
2018-02-18T17:01:13.479Z,74.47
2018-02-18T17:03:42.533Z,70.50
2018-02-18T17:06:10.457Z,80.33
2018-02-18T17:08:39.199Z,70.77
2018-02-18T17:11:07.192Z,70.37
2018-02-18T17:13:35.263Z,72.20
2018-02-18T17:16:03.206Z,64.67
2018-02-18T17:18:31.414Z,74.03
2018-02-18T17:20:59.599Z,64.23
2018-02-18T17:23:28.441Z,58.17
2018-02-18T17:25:56.313Z,57.30
2018-02-18T17:28:24.104Z,61.00
2018-02-18T17:30:52.178Z,63.57
2018-02-18T17:33:20.187Z,55.30
2018-02-18T17:35:48.384Z,59.33
2018-02-18T17:38:16.571Z,56.40
2018-02-18T17:40:44.843Z,62.23
2018-02-18T17:43:13.053Z,51.07
2018-02-18T17:45:41.733Z,57.43
2018-02-18T17:48:09.783Z,60.10
2018-02-18T17:50:37.982Z,60.20
2018-02-18T17:53:06.778Z,65.33
2018-02-18T17:55:35.735Z,64.30
2018-02-18T17:58:03.928Z,67.67
2018-02-18T18:00:32.050Z,62.67
2018-02-18T18:03:00.351Z,63.93
2018-02-18T18:05:28.733Z,64.67
2018-02-18T18:07:56.693Z,62.53
2018-02-18T18:10:24.981Z,61.00
2018-02-18T18:12:52.880Z,78.40
2018-02-18T18:15:21.630Z,57.00
2018-02-18T18:17:49.799Z,76.70
2018-02-18T18:20:17.808Z,72.30
2018-02-18T18:22:46.453Z,94.53
2018-02-18T18:25:14.330Z,93.17
2018-02-18T18:27:42.401Z,110.57
2018-02-18T18:30:10.359Z,95.77
2018-02-18T18:32:39.147Z,87.83
2018-02-18T18:35:07.752Z,89.70
2018-02-18T18:37:35.838Z,106.23
2018-02-18T18:40:03.818Z,91.97
2018-02-18T18:42:32.765Z,87.80
2018-02-18T18:45:01.243Z,81.47
2018-02-18T18:47:29.416Z,90.80
2018-02-18T18:49:57.412Z,72.63
2018-02-18T18:52:25.395Z,72.57
2018-02-18T18:54:54.324Z,72.80
2018-02-18T18:57:22.133Z,62.10
2018-02-18T18:59:49.936Z,74.97
2018-02-18T19:02:17.861Z,70.47
2018-02-18T19:04:46.429Z,68.30
2018-02-18T19:07:14.531Z,76.67
2018-02-18T19:09:43.644Z,68.67
2018-02-18T19:12:12.509Z,62.37
2018-02-18T19:14:41.108Z,58.83
2018-02-18T19:17:08.969Z,63.43
2018-02-18T19:19:36.928Z,75.10
2018-02-18T19:22:05.114Z,74.83
2018-02-18T19:24:33.901Z,72.67
2018-02-18T19:27:02.724Z,78.87
2018-02-18T19:29:31.057Z,78.13
2018-02-18T19:31:59.830Z,82.03
2018-02-18T19:34:28.027Z,81.93
2018-02-18T19:36:57.811Z,82.57
2018-02-18T19:39:25.773Z,76.17
2018-02-18T19:41:53.681Z,66.50
2018-02-18T19:44:21.750Z,72.40
2018-02-18T19:46:50.092Z,88.43
2018-02-18T19:49:18.161Z,81.67
2018-02-18T19:51:46.144Z,79.10
2018-02-18T19:54:14.403Z,76.10
2018-02-18T19:56:42.384Z,87.47
2018-02-18T19:59:10.367Z,79.53
2018-02-18T20:01:38.331Z,84.33
2018-02-18T20:04:06.976Z,106.77
2018-02-18T20:06:35.681Z,136.27
2018-02-18T20:09:04.367Z,174.67
2018-02-18T20:11:32.444Z,222.43
2018-02-18T20:14:01.013Z,137.97
2018-02-18T20:16:29.096Z,109.90
2018-02-18T20:18:57.285Z,94.27
2018-02-18T20:21:25.238Z,103.40
2018-02-18T20:23:53.295Z,100.30
2018-02-18T20:26:21.294Z,91.50
2018-02-18T20:28:49.370Z,80.83
2018-02-18T20:31:17.621Z,80.87
2018-02-18T20:33:47.333Z,80.90
2018-02-18T20:36:17.250Z,71.20
2018-02-18T20:38:45.319Z,66.07
2018-02-18T20:41:14.004Z,65.17
2018-02-18T20:43:42.084Z,73.07
2018-02-18T20:46:10.464Z,90.20
2018-02-18T20:48:38.457Z,75.80
2018-02-18T20:51:07.524Z,78.80
2018-02-18T20:53:35.675Z,74.90
2018-02-18T20:56:03.849Z,73.27
2018-02-18T20:58:32.354Z,70.13
2018-02-18T21:01:00.472Z,68.03
2018-02-18T21:03:28.397Z,57.13
2018-02-18T21:05:56.387Z,61.90
2018-02-18T21:08:24.280Z,58.13
2018-02-18T21:10:52.210Z,61.40
2018-02-18T21:13:20.164Z,63.00
2018-02-18T21:15:48.330Z,75.67
2018-02-18T21:18:16.795Z,61.60
2018-02-18T21:20:45.129Z,77.17
2018-02-18T21:23:13.771Z,68.13
2018-02-18T21:25:41.854Z,65.40
2018-02-18T21:28:10.126Z,74.73
2018-02-18T21:30:38.350Z,68.40
2018-02-18T21:33:06.996Z,73.73
2018-02-18T21:35:35.133Z,70.17
2018-02-18T21:38:03.335Z,68.00
2018-02-18T21:40:32.477Z,59.40
2018-02-18T21:43:01.452Z,66.93
2018-02-18T21:45:30.571Z,66.27
2018-02-18T21:47:58.582Z,64.30
2018-02-18T21:50:26.359Z,58.67
2018-02-18T21:52:54.147Z,58.27
2018-02-18T21:55:23.716Z,58.00
2018-02-18T21:57:51.710Z,64.23
2018-02-18T22:00:19.753Z,61.90
2018-02-18T22:02:47.553Z,57.10
2018-02-18T22:05:15.727Z,60.00
2018-02-18T22:07:43.762Z,54.50
2018-02-18T22:10:11.837Z,61.47
2018-02-18T22:12:39.701Z,54.47
2018-02-18T22:15:07.813Z,70.60
2018-02-18T22:17:35.876Z,59.57
2018-02-18T22:20:03.854Z,57.60
2018-02-18T22:22:32.496Z,62.60
2018-02-18T22:25:00.410Z,59.17
2018-02-18T22:27:29.082Z,57.30
2018-02-18T22:29:56.920Z,62.63
2018-02-18T22:32:24.789Z,58.37
2018-02-18T22:34:52.676Z,59.47
2018-02-18T22:37:20.440Z,59.63
2018-02-18T22:39:48.384Z,66.73
2018-02-18T22:42:16.171Z,58.33
2018-02-18T22:44:44.862Z,57.87
2018-02-18T22:47:12.714Z,79.23
2018-02-18T22:49:40.770Z,79.60
2018-02-18T22:52:08.842Z,82.90
2018-02-18T22:54:36.607Z,84.60
2018-02-18T22:57:04.579Z,79.37
2018-02-18T22:59:32.542Z,84.77
2018-02-18T23:02:00.430Z,81.30
2018-02-18T23:04:28.377Z,69.27
2018-02-18T23:06:56.371Z,72.33
2018-02-18T23:09:24.241Z,67.80
2018-02-18T23:11:52.180Z,73.67
2018-02-18T23:14:20.256Z,69.80
2018-02-18T23:16:48.011Z,81.33
2018-02-18T23:19:16.719Z,74.20
2018-02-18T23:21:44.483Z,71.60
2018-02-18T23:24:12.240Z,57.50
2018-02-18T23:26:40.333Z,64.83
2018-02-18T23:29:08.114Z,70.20
2018-02-18T23:31:36.750Z,74.23
2018-02-18T23:34:04.852Z,64.33
2018-02-18T23:36:32.786Z,73.80
2018-02-18T23:39:00.890Z,64.80
2018-02-18T23:41:28.838Z,67.70
2018-02-18T23:43:56.797Z,86.07
2018-02-18T23:46:24.681Z,71.67
2018-02-18T23:48:52.457Z,70.13
2018-02-18T23:51:20.374Z,83.20
2018-02-18T23:53:48.183Z,101.03
2018-02-18T23:56:16.043Z,111.60
2018-02-18T23:58:44.523Z,118.13
